This is the latest recevied weather packets stored in our database for station/object K1KOF. If no packets are shown the sender has not sent any weather packets the latest 10 day(s).
| Time | Temp. | Humidity | Pressure | Rain* | Wind** | Luminosity | Snow |
|---|---|---|---|---|---|---|---|
| 1777761580 | 16.11° C | 81% | 1022.2 hPa | 0 mm | - | 100 W/m² | - |
| 1777761278 | 16.67° C | 81% | 1022.4 hPa | 0 mm | - | 65 W/m² | - |
| 1777760976 | 16.11° C | 81% | 1022.2 hPa | 0 mm | - | 99 W/m² | - |
| 1777760673 | 16.11° C | 80% | 1022.3 hPa | 0 mm | - | 79 W/m² | - |
| 1777760368 | 16.11° C | 79% | 1022 hPa | 0 mm | - | 66 W/m² | - |
| 1777760065 | 16.67° C | 79% | 1021.9 hPa | 0 mm | - | 71 W/m² | - |
| 1777759762 | 16.67° C | 80% | 1022.1 hPa | 0 mm | - | 115 W/m² | - |
| 1777759458 | 16.67° C | 77% | 1022 hPa | 0 mm | - | 279 W/m² | - |
| 1777759155 | 17.22° C | 78% | 1022 hPa | 0 mm | - | 262 W/m² | - |
| 1777758853 | 18.33° C | 73% | 1022 hPa | 0 mm | - | 363 W/m² | - |
| 1777758549 | 17.22° C | 75% | 1022 hPa | 0 mm | - | 132 W/m² | - |
| 1777758245 | 16.67° C | 77% | 1022.2 hPa | 0 mm | - | 356 W/m² | - |
| 1777757943 | 16.67° C | 79% | 1021.8 hPa | 0.51 mm | - | 120 W/m² | - |
| 1777757640 | 16.67° C | 78% | 1022 hPa | 0.51 mm | - | 94 W/m² | - |
| 1777757339 | 16.67° C | 77% | 1021.9 hPa | 0 mm | - | 109 W/m² | - |
| 1777757037 | 17.22° C | 75% | 1021.8 hPa | 0 mm | - | 108 W/m² | - |
| 1777756734 | 17.78° C | 76% | 1021.8 hPa | 0 mm | - | 328 W/m² | - |
| 1777756429 | 17.78° C | 74% | 1021.8 hPa | 0 mm | - | 506 W/m² | - |
| 1777756127 | 17.22° C | 75% | 1021.8 hPa | 0 mm | - | 415 W/m² | - |
| 1777755824 | 16.67° C | 76% | 1021.9 hPa | 0 mm | - | 214 W/m² | - |
| 1777754309 | 16.67° C | 77% | 1021.8 hPa | 0 mm | - | 303 W/m² | - |
| 1777753701 | 16.67° C | 78% | 1021.9 hPa | 0 mm | - | 190 W/m² | - |
| 1777751883 | 16.67° C | 76% | 1022.3 hPa | 0 mm | - | 511 W/m² | - |
| 1777751276 | 16.67° C | 78% | 1022.3 hPa | 0 mm | - | 690 W/m² | - |
| 1777748253 | 15.56° C | 84% | 1023.1 hPa | 0 mm | - | 329 W/m² | - |
* Rain latest hour (hover to see other rain measurements)
** Current wind speed in m/s (hover to see current wind gust speed)